Time;durP1;ratioP1;P1;durP2;ratioP2;P2;SDS_P1;SDS_P2;PMS_P1;PMS_P2;Temp;Humidity;BMP_temperature;BMP_pressure;BME280_temperature;BME280_humidity;BME280_pressure;Samples;Min_cycle;Max_cycle;Signal;HPM_P1;HPM_P2
2022/08/02 00:00:55;;;;;;;;;;;20.90;94.40;;;;;;4145419;28;20393;-55
2022/08/02 00:02:57;;;;;;;;;;;20.80;94.40;;;;;;4145595;28;19921;-56
2022/08/02 00:04:59;;;;;;;;;;;20.70;94.90;;;;;;4145323;28;19975;-56
2022/08/02 00:07:06;;;;;;;;;;;20.90;94.50;;;;;;4144998;28;19925;-55
2022/08/02 00:09:07;;;;;;;;;;;21.00;93.70;;;;;;4145508;28;20169;-56
2022/08/02 00:11:09;;;;;;;;;;;21.10;94.00;;;;;;4145626;28;19938;-56
2022/08/02 00:13:11;;;;;;;;;;;21.10;94.80;;;;;;4160420;28;19974;-55
2022/08/02 00:15:13;;;;;;;;;;;20.80;95.80;;;;;;4145150;28;20286;-55
2022/08/02 00:17:16;;;;;;;;;;;20.80;96.00;;;;;;4144693;28;19921;-55
2022/08/02 00:19:18;;;;;;;;;;;20.50;96.90;;;;;;4145644;28;19928;-56
2022/08/02 00:21:21;;;;;;;;;;;20.50;97.40;;;;;;4144999;28;19922;-55
2022/08/02 00:23:22;;;;;;;;;;;20.60;96.90;;;;;;4145255;28;20024;-56
2022/08/02 00:25:24;;;;;;;;;;;20.60;97.20;;;;;;4145297;28;19921;-55
2022/08/02 00:27:26;;;;;;;;;;;20.70;96.90;;;;;;4145165;28;20309;-56
2022/08/02 00:29:31;;;;;;;;;;;20.50;97.30;;;;;;4144976;28;19960;-56
2022/08/02 00:31:33;;;;;;;;;;;20.40;97.30;;;;;;4145143;28;20408;-56
2022/08/02 00:33:35;;;;;;;;;;;20.40;98.80;;;;;;4144780;28;20318;-55
2022/08/02 00:35:58;;;;;;;;;;;20.30;99.90;;;;;;4144950;28;19921;-55
2022/08/02 00:38:01;;;;;;;;;;;20.30;99.90;;;;;;4145427;28;19922;-55
2022/08/02 00:40:04;;;;;;;;;;;20.30;99.90;;;;;;4145193;28;19925;-55
2022/08/02 00:42:06;;;;;;;;;;;20.50;99.00;;;;;;4145056;28;20418;-56
2022/08/02 00:44:08;;;;;;;;;;;20.50;98.60;;;;;;4138084;28;20289;-56
2022/08/02 00:46:10;;;;;;;;;;;20.40;98.50;;;;;;4128443;28;19929;-55
2022/08/02 00:48:12;;;;;;;;;;;20.40;98.60;;;;;;4142934;28;19922;-55
2022/08/02 00:50:14;;;;;;;;;;;20.30;99.00;;;;;;4144625;28;19929;-55
2022/08/02 00:52:16;;;;;;;;;;;20.10;99.90;;;;;;4144809;28;19929;-55
2022/08/02 00:54:18;;;;;;;;;;;19.90;99.90;;;;;;4132742;28;20324;-56
2022/08/02 00:56:20;;;;;;;;;;;19.70;99.90;;;;;;4131228;28;19922;-55
2022/08/02 00:58:23;;;;;;;;;;;19.50;99.90;;;;;;4145279;28;19929;-56
2022/08/02 01:00:25;;;;;;;;;;;19.40;99.90;;;;;;4135126;28;19929;-55
2022/08/02 01:02:26;;;;;;;;;;;19.40;99.90;;;;;;4128604;28;19961;-56
2022/08/02 01:04:28;;;;;;;;;;;19.40;99.90;;;;;;4144738;28;19926;-55
2022/08/02 01:06:32;;;;;;;;;;;19.50;99.90;;;;;;4144745;28;19957;-55
2022/08/02 01:08:36;;;;;;;;;;;19.50;99.90;;;;;;4145003;28;20005;-55
2022/08/02 01:10:38;;;;;;;;;;;19.50;99.90;;;;;;4143246;28;19956;-55
2022/08/02 01:12:40;;;;;;;;;;;19.40;99.90;;;;;;4144460;28;20286;-55
2022/08/02 01:14:43;;;;;;;;;;;19.50;99.90;;;;;;4144778;28;20344;-55
2022/08/02 01:16:47;;;;;;;;;;;19.40;99.90;;;;;;4131538;28;19992;-55
2022/08/02 01:18:53;;;;;;;;;;;19.20;99.90;;;;;;4143829;28;20012;-56
2022/08/02 01:21:15;;;;;;;;;;;19.20;99.90;;;;;;4144666;28;19973;-55
2022/08/02 01:23:29;;;;;;;;;;;19.30;99.90;;;;;;4130337;28;19964;-55
2022/08/02 01:25:50;;;;;;;;;;;19.30;99.90;;;;;;4134643;28;19979;-56
2022/08/02 01:28:10;;;;;;;;;;;19.30;99.90;;;;;;4144745;28;19928;-55
2022/08/02 01:30:13;;;;;;;;;;;19.40;99.90;;;;;;4144600;28;19960;-55
2022/08/02 01:32:21;;;;;;;;;;;19.50;99.90;;;;;;4135509;28;19921;-56
2022/08/02 01:34:29;;;;;;;;;;;19.50;99.90;;;;;;4143974;28;19926;-55
2022/08/02 01:36:44;;;;;;;;;;;19.40;99.90;;;;;;4144728;28;19925;-55
2022/08/02 01:38:48;;;;;;;;;;;19.20;99.90;;;;;;4134212;28;19925;-55
2022/08/02 01:40:50;;;;;;;;;;;19.00;99.90;;;;;;4129178;28;19925;-55
2022/08/02 01:42:54;;;;;;;;;;;18.90;99.90;;;;;;4144522;28;19929;-56
2022/08/02 01:44:57;;;;;;;;;;;18.80;99.90;;;;;;4144385;28;20301;-55
2022/08/02 01:47:02;;;;;;;;;;;18.90;99.90;;;;;;4143125;28;20290;-55
2022/08/02 01:49:06;;;;;;;;;;;18.90;99.90;;;;;;4128093;28;19921;-55
2022/08/02 01:51:11;;;;;;;;;;;18.90;99.90;;;;;;4145327;28;19925;-56
2022/08/02 01:53:14;;;;;;;;;;;19.00;99.90;;;;;;4147141;28;19932;-55
2022/08/02 01:55:22;;;;;;;;;;;19.00;99.90;;;;;;4132256;28;20385;-55
2022/08/02 01:57:25;;;;;;;;;;;18.90;99.90;;;;;;4151918;28;19932;-56
2022/08/02 01:59:28;;;;;;;;;;;18.90;99.90;;;;;;4131380;28;19926;-56
2022/08/02 02:01:31;;;;;;;;;;;18.90;99.90;;;;;;4147154;28;19926;-56
2022/08/02 02:03:34;;;;;;;;;;;18.90;99.90;;;;;;4142822;28;20238;-56
2022/08/02 02:05:36;;;;;;;;;;;18.80;99.90;;;;;;4130849;28;19953;-55
2022/08/02 02:07:39;;;;;;;;;;;18.90;99.90;;;;;;4136474;28;20369;-55
2022/08/02 02:09:41;;;;;;;;;;;18.90;99.90;;;;;;4146754;28;19968;-57
2022/08/02 02:11:51;;;;;;;;;;;18.90;99.90;;;;;;4146780;28;20397;-55
2022/08/02 02:14:12;;;;;;;;;;;19.00;99.90;;;;;;4146583;28;19921;-57
2022/08/02 02:16:15;;;;;;;;;;;18.80;99.90;;;;;;4143189;28;19930;-55
2022/08/02 02:18:22;;;;;;;;;;;18.80;99.90;;;;;;4141760;28;19953;-55
2022/08/02 02:20:24;;;;;;;;;;;18.80;99.90;;;;;;4147158;28;19955;-55
2022/08/02 02:22:26;;;;;;;;;;;18.70;99.90;;;;;;4144624;28;19957;-56
2022/08/02 02:24:28;;;;;;;;;;;18.80;99.90;;;;;;4130543;28;19945;-55
2022/08/02 02:26:30;;;;;;;;;;;18.80;99.90;;;;;;4139767;28;20340;-55
2022/08/02 02:28:33;;;;;;;;;;;18.70;99.90;;;;;;4146504;28;19921;-55
2022/08/02 02:30:37;;;;;;;;;;;18.70;99.90;;;;;;4130708;28;19925;-55
2022/08/02 02:32:40;;;;;;;;;;;18.70;99.90;;;;;;4137665;28;20399;-55
2022/08/02 02:34:43;;;;;;;;;;;18.80;99.90;;;;;;4147041;28;20456;-55
2022/08/02 02:36:48;;;;;;;;;;;18.80;99.90;;;;;;4131465;28;19925;-55
2022/08/02 02:38:50;;;;;;;;;;;18.80;99.90;;;;;;4135985;28;19964;-55
2022/08/02 02:40:53;;;;;;;;;;;18.80;99.90;;;;;;4146522;28;19925;-55
2022/08/02 02:42:58;;;;;;;;;;;18.70;99.90;;;;;;4133515;28;19933;-55
2022/08/02 02:45:00;;;;;;;;;;;18.70;99.90;;;;;;4134211;28;19925;-55
2022/08/02 02:47:03;;;;;;;;;;;18.60;99.90;;;;;;4161508;28;20309;-55
2022/08/02 02:49:06;;;;;;;;;;;18.60;99.90;;;;;;4133754;28;20590;-55
2022/08/02 02:51:09;;;;;;;;;;;18.60;99.90;;;;;;4146545;28;19921;-55
2022/08/02 02:53:17;;;;;;;;;;;18.60;99.90;;;;;;4146322;28;19921;-55
2022/08/02 02:55:20;;;;;;;;;;;18.50;99.90;;;;;;4135943;28;19921;-55
2022/08/02 02:57:23;;;;;;;;;;;18.50;99.90;;;;;;4144241;28;20320;-56
2022/08/02 02:59:25;;;;;;;;;;;18.50;99.90;;;;;;4146449;28;19922;-55
2022/08/02 03:01:27;;;;;;;;;;;18.40;99.90;;;;;;4138148;28;19934;-55
2022/08/02 03:03:50;;;;;;;;;;;18.30;99.90;;;;;;4131646;28;19964;-55
2022/08/02 03:05:52;;;;;;;;;;;18.20;99.90;;;;;;4146290;28;19921;-55
2022/08/02 03:07:54;;;;;;;;;;;18.20;99.90;;;;;;4144828;28;19925;-55
2022/08/02 03:09:55;;;;;;;;;;;18.00;99.90;;;;;;4146203;28;20496;-55
2022/08/02 03:11:58;;;;;;;;;;;18.10;99.90;;;;;;4139983;28;19932;-55
2022/08/02 03:14:23;;;;;;;;;;;18.20;99.90;;;;;;4130696;28;19984;-55
2022/08/02 03:16:28;;;;;;;;;;;18.40;99.90;;;;;;4145943;28;20000;-55
2022/08/02 03:18:30;;;;;;;;;;;18.40;99.90;;;;;;4142571;28;19929;-55
2022/08/02 03:20:32;;;;;;;;;;;18.40;99.90;;;;;;4145918;28;19952;-55
2022/08/02 03:22:35;;;;;;;;;;;18.40;99.90;;;;;;4146042;28;19921;-55
2022/08/02 03:24:37;;;;;;;;;;;18.50;99.90;;;;;;4131154;28;19964;-55
2022/08/02 03:26:39;;;;;;;;;;;18.40;99.90;;;;;;4135102;28;20381;-55
2022/08/02 03:28:42;;;;;;;;;;;18.20;99.90;;;;;;4145809;28;19972;-56
2022/08/02 03:30:44;;;;;;;;;;;18.10;99.90;;;;;;4133077;28;20028;-55
2022/08/02 03:32:47;;;;;;;;;;;18.00;99.90;;;;;;4132764;28;20362;-56
2022/08/02 03:34:49;;;;;;;;;;;18.00;99.90;;;;;;4145802;28;19932;-55
2022/08/02 03:36:53;;;;;;;;;;;18.10;99.90;;;;;;4134876;28;19973;-55
2022/08/02 03:38:56;;;;;;;;;;;18.10;99.90;;;;;;4131180;28;20345;-56
2022/08/02 03:41:00;;;;;;;;;;;18.10;99.90;;;;;;4145695;28;20451;-56
2022/08/02 03:43:02;;;;;;;;;;;18.10;99.90;;;;;;4137923;28;19932;-55
2022/08/02 03:45:06;;;;;;;;;;;18.20;99.90;;;;;;4145889;28;19968;-55
2022/08/02 03:47:09;;;;;;;;;;;18.20;99.90;;;;;;4128398;28;19964;-56
2022/08/02 03:49:14;;;;;;;;;;;18.10;99.90;;;;;;4151709;28;19979;-56
2022/08/02 03:51:16;;;;;;;;;;;18.00;99.90;;;;;;4145524;28;20354;-54
2022/08/02 03:53:18;;;;;;;;;;;18.00;99.90;;;;;;4144972;28;20193;-56
2022/08/02 03:55:21;;;;;;;;;;;17.90;99.90;;;;;;4145361;28;19921;-56
2022/08/02 03:57:23;;;;;;;;;;;17.80;99.90;;;;;;4145322;28;19921;-56
2022/08/02 03:59:25;;;;;;;;;;;17.80;99.90;;;;;;4132455;28;19926;-55
2022/08/02 04:01:27;;;;;;;;;;;17.80;99.90;;;;;;4132572;28;19956;-56
2022/08/02 04:03:29;;;;;;;;;;;17.70;99.90;;;;;;4145243;28;19928;-55
2022/08/02 04:05:31;;;;;;;;;;;17.60;99.90;;;;;;4134453;28;19929;-54
2022/08/02 04:07:33;;;;;;;;;;;17.70;99.90;;;;;;4134033;28;19921;-55
2022/08/02 04:09:55;;;;;;;;;;;17.60;99.90;;;;;;4145368;28;20412;-55
2022/08/02 04:11:57;;;;;;;;;;;17.50;99.90;;;;;;4144846;28;19987;-55
2022/08/02 04:14:00;;;;;;;;;;;17.60;99.90;;;;;;4144511;28;19921;-56
2022/08/02 04:16:05;;;;;;;;;;;17.70;99.90;;;;;;4145249;28;19931;-55
2022/08/02 04:18:07;;;;;;;;;;;17.70;99.90;;;;;;4144782;28;19929;-55
2022/08/02 04:20:11;;;;;;;;;;;17.60;99.90;;;;;;4145202;28;20258;-55
2022/08/02 04:22:15;;;;;;;;;;;17.60;99.90;;;;;;4145275;28;19926;-55
2022/08/02 04:24:22;;;;;;;;;;;17.60;99.90;;;;;;4152263;28;19959;-55
2022/08/02 04:26:26;;;;;;;;;;;17.50;99.90;;;;;;4128715;28;19952;-55
2022/08/02 04:28:30;;;;;;;;;;;17.50;99.90;;;;;;4127696;28;19951;-55
2022/08/02 04:30:32;;;;;;;;;;;17.50;99.90;;;;;;4135140;28;20444;-55
2022/08/02 04:32:34;;;;;;;;;;;17.60;99.90;;;;;;4145054;28;19922;-56
2022/08/02 04:34:36;;;;;;;;;;;17.40;99.90;;;;;;4144757;28;20039;-55
2022/08/02 04:36:39;;;;;;;;;;;17.50;99.90;;;;;;4140930;28;20269;-55
2022/08/02 04:38:41;;;;;;;;;;;17.50;99.90;;;;;;4127665;28;19965;-56
2022/08/02 04:40:51;;;;;;;;;;;17.50;99.90;;;;;;4138968;28;19925;-56
2022/08/02 04:42:52;;;;;;;;;;;17.60;99.90;;;;;;4142236;28;19996;-56
2022/08/02 04:44:54;;;;;;;;;;;17.60;99.90;;;;;;4145451;28;19925;-55
2022/08/02 04:46:58;;;;;;;;;;;17.60;99.90;;;;;;4144633;28;19930;-55
2022/08/02 04:49:06;;;;;;;;;;;17.60;99.90;;;;;;4144429;28;19965;-55
2022/08/02 04:51:08;;;;;;;;;;;17.60;99.90;;;;;;4145104;28;19932;-56
2022/08/02 04:53:10;;;;;;;;;;;17.50;99.90;;;;;;4159697;28;19921;-56
2022/08/02 04:55:12;;;;;;;;;;;17.50;99.90;;;;;;4144678;28;19921;-56
2022/08/02 04:59:34;;;;;;;;;;;17.30;99.90;;;;;;4137634;28;20412;-56
2022/08/02 05:01:43;;;;;;;;;;;17.30;99.90;;;;;;4144692;28;19921;-55
2022/08/02 05:03:45;;;;;;;;;;;17.40;99.90;;;;;;4128545;28;19965;-55
2022/08/02 05:05:47;;;;;;;;;;;17.50;99.90;;;;;;4128505;28;19922;-56
2022/08/02 05:07:49;;;;;;;;;;;17.40;99.90;;;;;;4150165;28;20336;-55
2022/08/02 05:09:51;;;;;;;;;;;17.30;99.90;;;;;;4144518;28;19921;-55
2022/08/02 05:11:53;;;;;;;;;;;17.30;99.90;;;;;;4144721;28;19921;-55
2022/08/02 05:13:56;;;;;;;;;;;17.20;99.90;;;;;;4143283;28;19976;-55
2022/08/02 05:16:01;;;;;;;;;;;17.30;99.90;;;;;;4131800;28;19933;-57
2022/08/02 05:18:03;;;;;;;;;;;17.30;99.90;;;;;;4137380;28;19925;-56
2022/08/02 05:20:05;;;;;;;;;;;17.30;99.90;;;;;;4144644;28;19928;-56
2022/08/02 05:22:07;;;;;;;;;;;17.30;99.90;;;;;;4133423;28;20330;-56
2022/08/02 05:24:09;;;;;;;;;;;17.40;99.90;;;;;;4129772;28;20149;-57
2022/08/02 05:26:11;;;;;;;;;;;17.40;99.90;;;;;;4144551;28;19932;-57
2022/08/02 05:28:13;;;;;;;;;;;17.60;99.90;;;;;;4139160;28;19932;-57
2022/08/02 05:30:14;;;;;;;;;;;17.80;99.90;;;;;;4131347;28;19926;-56
2022/08/02 05:32:17;;;;;;;;;;;17.90;99.90;;;;;;4147115;28;19928;-57
2022/08/02 05:34:19;;;;;;;;;;;18.00;99.90;;;;;;4141068;28;20453;-56
2022/08/02 05:36:21;;;;;;;;;;;18.30;99.90;;;;;;4131241;28;19928;-56
2022/08/02 05:38:23;;;;;;;;;;;18.60;99.90;;;;;;4144785;28;19971;-57
2022/08/02 05:40:26;;;;;;;;;;;18.80;99.90;;;;;;4143020;28;19964;-57
2022/08/02 05:42:31;;;;;;;;;;;19.00;99.90;;;;;;4136787;28;20345;-56
2022/08/02 05:44:33;;;;;;;;;;;19.30;99.90;;;;;;4144695;28;19925;-56
2022/08/02 05:46:35;;;;;;;;;;;19.60;99.90;;;;;;4147714;28;19922;-57
2022/08/02 05:48:37;;;;;;;;;;;19.80;99.90;;;;;;4147449;28;19921;-57
2022/08/02 05:50:43;;;;;;;;;;;20.00;99.90;;;;;;4147220;28;19980;-57
2022/08/02 05:52:48;;;;;;;;;;;20.10;99.90;;;;;;4146828;28;19935;-57
2022/08/02 05:54:52;;;;;;;;;;;20.20;99.90;;;;;;4130939;28;20436;-56
2022/08/02 05:57:01;;;;;;;;;;;20.30;99.90;;;;;;4139290;28;19921;-57
2022/08/02 05:59:03;;;;;;;;;;;20.50;99.90;;;;;;4147045;28;20292;-56
2022/08/02 06:01:06;;;;;;;;;;;20.70;99.90;;;;;;4130956;28;19922;-56
2022/08/02 06:03:18;;;;;;;;;;;21.00;99.90;;;;;;4137948;28;19931;-57
2022/08/02 06:05:20;;;;;;;;;;;21.20;99.90;;;;;;4147061;28;20012;-57
2022/08/02 06:07:23;;;;;;;;;;;21.40;99.90;;;;;;4134371;28;19929;-57
2022/08/02 06:09:25;;;;;;;;;;;21.40;99.90;;;;;;4147032;28;19945;-57
2022/08/02 06:11:35;;;;;;;;;;;21.30;99.90;;;;;;4146781;28;20020;-57
2022/08/02 06:13:38;;;;;;;;;;;21.20;99.90;;;;;;4152211;28;20161;-56
2022/08/02 06:15:41;;;;;;;;;;;21.10;99.90;;;;;;4139827;28;19944;-57
2022/08/02 06:17:43;;;;;;;;;;;21.00;99.90;;;;;;4134011;28;19922;-57
2022/08/02 06:19:47;;;;;;;;;;;21.00;99.90;;;;;;4143341;28;20293;-57
2022/08/02 06:21:53;;;;;;;;;;;21.10;99.90;;;;;;4137466;28;19922;-57
2022/08/02 06:24:17;;;;;;;;;;;21.30;99.90;;;;;;4147031;28;20385;-57
2022/08/02 06:26:20;;;;;;;;;;;21.60;99.90;;;;;;4132699;28;19930;-57
2022/08/02 06:28:22;;;;;;;;;;;21.90;99.90;;;;;;4137607;28;20308;-57
2022/08/02 06:30:24;;;;;;;;;;;22.10;99.90;;;;;;4136508;28;19949;-56
2022/08/02 06:32:27;;;;;;;;;;;22.30;99.90;;;;;;4138795;28;19922;-55
2022/08/02 06:34:29;;;;;;;;;;;22.30;99.90;;;;;;4143032;28;19983;-57
2022/08/02 06:36:35;;;;;;;;;;;22.30;99.90;;;;;;4129948;28;19922;-56
2022/08/02 06:38:40;;;;;;;;;;;22.30;99.90;;;;;;4130171;28;19926;-57
2022/08/02 06:40:44;;;;;;;;;;;22.50;99.90;;;;;;4136916;28;19957;-56
2022/08/02 06:43:05;;;;;;;;;;;22.70;99.90;;;;;;4139870;28;19940;-56
2022/08/02 06:45:07;;;;;;;;;;;23.00;99.90;;;;;;4130085;28;19956;-57
2022/08/02 06:47:09;;;;;;;;;;;23.20;99.90;;;;;;4130354;28;20327;-57
2022/08/02 06:49:14;;;;;;;;;;;23.20;99.90;;;;;;4130518;28;19932;-57
2022/08/02 06:51:16;;;;;;;;;;;23.50;99.90;;;;;;4145206;28;19921;-57
2022/08/02 06:53:18;;;;;;;;;;;23.80;99.90;;;;;;4130052;28;19926;-58
2022/08/02 06:55:20;;;;;;;;;;;24.20;99.80;;;;;;4129980;28;19961;-58
2022/08/02 06:57:22;;;;;;;;;;;24.50;99.30;;;;;;4131027;28;19921;-57
2022/08/02 06:59:24;;;;;;;;;;;24.70;99.40;;;;;;4144576;28;19925;-57
2022/08/02 07:01:26;;;;;;;;;;;24.70;98.50;;;;;;4136920;28;19979;-58
2022/08/02 07:03:28;;;;;;;;;;;24.60;98.30;;;;;;4159298;28;19925;-57
2022/08/02 07:05:30;;;;;;;;;;;24.80;98.30;;;;;;4144789;28;19925;-57
2022/08/02 07:07:32;;;;;;;;;;;24.90;98.40;;;;;;4139450;28;19925;-56
2022/08/02 07:09:34;;;;;;;;;;;25.10;98.20;;;;;;4142752;28;20328;-57
2022/08/02 07:11:36;;;;;;;;;;;25.20;98.40;;;;;;4142502;28;19921;-57
2022/08/02 07:13:38;;;;;;;;;;;25.10;98.50;;;;;;4145916;28;19929;-57
2022/08/02 07:15:41;;;;;;;;;;;25.10;98.70;;;;;;4147748;28;19929;-57
2022/08/02 07:17:50;;;;;;;;;;;25.20;98.70;;;;;;4144577;28;20487;-57
2022/08/02 07:19:51;;;;;;;;;;;25.20;98.80;;;;;;4137196;28;19960;-57
2022/08/02 07:21:53;;;;;;;;;;;25.30;98.70;;;;;;4142072;28;19929;-57
2022/08/02 07:23:58;;;;;;;;;;;25.50;98.20;;;;;;4134031;28;20354;-57
2022/08/02 07:26:00;;;;;;;;;;;25.70;99.00;;;;;;4143464;28;19932;-57
2022/08/02 07:28:08;;;;;;;;;;;25.90;98.80;;;;;;4151122;28;19922;-57
2022/08/02 07:30:16;;;;;;;;;;;26.10;98.30;;;;;;4124235;28;19928;-57
2022/08/02 07:32:37;;;;;;;;;;;26.20;97.90;;;;;;4132507;28;19921;-57
2022/08/02 07:34:58;;;;;;;;;;;26.40;97.40;;;;;;4128262;28;19930;-57
2022/08/02 07:37:00;;;;;;;;;;;26.60;96.90;;;;;;4134709;28;20012;-59
2022/08/02 07:39:02;;;;;;;;;;;26.70;96.10;;;;;;4145481;28;19956;-57
2022/08/02 07:41:04;;;;;;;;;;;26.60;96.00;;;;;;4145592;28;19961;-59
2022/08/02 07:43:06;;;;;;;;;;;26.90;95.60;;;;;;4147156;28;19975;-57
2022/08/02 07:45:09;;;;;;;;;;;27.40;95.40;;;;;;4145467;28;19940;-57
2022/08/02 07:47:11;;;;;;;;;;;27.70;94.20;;;;;;4150709;28;20324;-58
2022/08/02 07:49:17;;;;;;;;;;;28.00;94.10;;;;;;4146781;28;19925;-57
2022/08/02 07:51:21;;;;;;;;;;;28.10;93.20;;;;;;4140176;28;19953;-57
2022/08/02 07:53:23;;;;;;;;;;;28.60;93.50;;;;;;4129390;28;20008;-58
2022/08/02 07:55:45;;;;;;;;;;;29.00;92.50;;;;;;4144490;28;19928;-58
2022/08/02 07:57:47;;;;;;;;;;;29.00;93.00;;;;;;4139552;28;20012;-57
2022/08/02 07:59:50;;;;;;;;;;;29.20;90.90;;;;;;4135369;28;20333;-57
2022/08/02 08:01:52;;;;;;;;;;;29.50;91.50;;;;;;4144379;28;19939;-57
2022/08/02 08:03:54;;;;;;;;;;;29.70;91.50;;;;;;4144067;28;19925;-57
2022/08/02 08:05:56;;;;;;;;;;;30.10;89.60;;;;;;4145577;28;19929;-57
2022/08/02 08:07:58;;;;;;;;;;;30.40;90.80;;;;;;4140906;28;19932;-58
2022/08/02 08:10:00;;;;;;;;;;;30.70;89.90;;;;;;4143990;28;20424;-57
2022/08/02 08:12:02;;;;;;;;;;;30.90;89.10;;;;;;4143185;28;19956;-57
2022/08/02 08:14:24;;;;;;;;;;;31.00;88.00;;;;;;4090188;28;20405;-58
2022/08/02 08:16:27;;;;;;;;;;;31.40;89.10;;;;;;4088234;28;19974;-57
2022/08/02 08:18:29;;;;;;;;;;;31.40;86.70;;;;;;4106919;28;19976;-57
2022/08/02 08:20:31;;;;;;;;;;;31.50;87.80;;;;;;4133947;28;19925;-58
2022/08/02 08:22:33;;;;;;;;;;;31.90;87.20;;;;;;4130528;28;19984;-57
2022/08/02 08:24:35;;;;;;;;;;;32.00;86.50;;;;;;4134906;28;19925;-58
2022/08/02 08:26:38;;;;;;;;;;;32.30;89.10;;;;;;4127566;28;19948;-59
2022/08/02 08:28:41;;;;;;;;;;;32.30;88.30;;;;;;4130658;28;19980;-57
2022/08/02 08:30:46;;;;;;;;;;;32.10;90.30;;;;;;4144215;28;19925;-57
2022/08/02 08:32:48;;;;;;;;;;;31.90;90.90;;;;;;4141488;28;19928;-58
2022/08/02 08:34:50;;;;;;;;;;;31.70;92.30;;;;;;4133987;28;19929;-58
2022/08/02 08:36:52;;;;;;;;;;;31.80;92.30;;;;;;4156381;28;19929;-57
2022/08/02 08:38:54;;;;;;;;;;;31.90;92.00;;;;;;4136427;28;19956;-59
2022/08/02 08:40:56;;;;;;;;;;;32.10;91.70;;;;;;4129761;28;20297;-59
2022/08/02 08:42:58;;;;;;;;;;;31.40;91.80;;;;;;4143622;28;19922;-59
2022/08/02 08:45:00;;;;;;;;;;;30.90;92.50;;;;;;4134231;28;20349;-57
2022/08/02 08:47:04;;;;;;;;;;;30.70;93.30;;;;;;4143439;28;19968;-57
2022/08/02 08:49:10;;;;;;;;;;;31.20;94.20;;;;;;4134855;28;19953;-57
2022/08/02 08:51:15;;;;;;;;;;;31.40;92.60;;;;;;4128618;28;20290;-58
2022/08/02 08:53:17;;;;;;;;;;;31.80;92.80;;;;;;4144606;28;20420;-58
2022/08/02 08:55:21;;;;;;;;;;;31.90;91.90;;;;;;4136041;28;19965;-57
2022/08/02 08:57:23;;;;;;;;;;;31.30;92.20;;;;;;4128522;28;19929;-58
2022/08/02 08:59:25;;;;;;;;;;;31.00;92.80;;;;;;4142747;28;19980;-58
2022/08/02 09:01:28;;;;;;;;;;;30.80;93.10;;;;;;4143339;28;19957;-58
2022/08/02 09:03:50;;;;;;;;;;;30.60;92.80;;;;;;4137163;28;19925;-57
2022/08/02 09:05:52;;;;;;;;;;;30.40;93.10;;;;;;4146195;28;20029;-56
2022/08/02 09:07:54;;;;;;;;;;;30.40;93.70;;;;;;4147758;28;20302;-56
2022/08/02 09:09:56;;;;;;;;;;;30.50;93.40;;;;;;4147693;28;19926;-58
2022/08/02 09:12:21;;;;;;;;;;;30.60;93.50;;;;;;4144744;28;19928;-57
2022/08/02 09:14:27;;;;;;;;;;;30.60;93.60;;;;;;4147757;28;20280;-57
2022/08/02 09:16:40;;;;;;;;;;;30.00;93.60;;;;;;4147543;28;19929;-59
2022/08/02 09:18:43;;;;;;;;;;;29.70;94.30;;;;;;4146697;28;19933;-56
2022/08/02 09:20:53;;;;;;;;;;;29.50;94.60;;;;;;4147480;28;19941;-58
2022/08/02 09:23:08;;;;;;;;;;;29.20;95.40;;;;;;4147507;28;20377;-58
2022/08/02 09:25:14;;;;;;;;;;;29.20;95.40;;;;;;4131304;28;20028;-57
2022/08/02 09:27:18;;;;;;;;;;;28.90;95.50;;;;;;4138927;28;20048;-57
2022/08/02 09:29:21;;;;;;;;;;;28.80;96.10;;;;;;4146411;28;20377;-57
2022/08/02 09:31:23;;;;;;;;;;;28.50;96.30;;;;;;4131511;28;19921;-57
2022/08/02 09:33:26;;;;;;;;;;;28.50;97.00;;;;;;4137004;28;19926;-58
2022/08/02 09:35:35;;;;;;;;;;;28.50;97.00;;;;;;4147629;28;20374;-58
2022/08/02 09:38:10;;;;;;;;;;;28.30;96.50;;;;;;4131273;28;19922;-58
2022/08/02 09:40:12;;;;;;;;;;;28.40;97.00;;;;;;4139216;28;20336;-57
2022/08/02 09:42:14;;;;;;;;;;;28.50;97.50;;;;;;4147568;28;19925;-57
2022/08/02 09:44:16;;;;;;;;;;;28.60;97.20;;;;;;4143013;28;19925;-55
2022/08/02 09:46:37;;;;;;;;;;;28.60;96.90;;;;;;4147491;28;19921;-58
2022/08/02 09:48:50;;;;;;;;;;;28.30;96.90;;;;;;4147683;28;19937;-57
2022/08/02 09:50:55;;;;;;;;;;;28.20;97.80;;;;;;4143950;28;19937;-57
2022/08/02 09:52:57;;;;;;;;;;;28.30;97.70;;;;;;4146976;28;19968;-58
2022/08/02 09:55:03;;;;;;;;;;;28.20;97.60;;;;;;4147488;28;19932;-59
2022/08/02 09:57:06;;;;;;;;;;;28.10;97.30;;;;;;4131201;28;19922;-57
2022/08/02 09:59:08;;;;;;;;;;;27.80;97.30;;;;;;4136494;28;19931;-57
2022/08/02 10:01:10;;;;;;;;;;;27.70;97.40;;;;;;4147481;28;19979;-58
2022/08/02 10:03:12;;;;;;;;;;;27.60;97.30;;;;;;4132721;28;19929;-57
2022/08/02 10:05:28;;;;;;;;;;;27.70;97.10;;;;;;4136499;28;20315;-56
2022/08/02 10:07:30;;;;;;;;;;;27.80;97.60;;;;;;4147204;28;20364;-56
2022/08/02 10:09:33;;;;;;;;;;;27.80;97.80;;;;;;4146746;28;20299;-57
2022/08/02 10:11:35;;;;;;;;;;;27.70;98.20;;;;;;4146319;28;19968;-57
2022/08/02 10:13:37;;;;;;;;;;;27.60;98.60;;;;;;4146840;28;19952;-58
2022/08/02 10:15:39;;;;;;;;;;;27.60;98.50;;;;;;4135466;28;19921;-57
2022/08/02 10:17:51;;;;;;;;;;;27.40;98.70;;;;;;4138172;28;19922;-57
2022/08/02 10:19:53;;;;;;;;;;;27.20;99.00;;;;;;4146907;28;19925;-56
2022/08/02 10:22:05;;;;;;;;;;;27.10;99.30;;;;;;4135371;28;19922;-57
2022/08/02 10:24:09;;;;;;;;;;;27.10;99.40;;;;;;4133205;28;19925;-58
2022/08/02 10:26:15;;;;;;;;;;;26.90;99.50;;;;;;4146414;28;19925;-56
2022/08/02 10:28:18;;;;;;;;;;;26.90;99.90;;;;;;4144166;28;19952;-57
2022/08/02 10:30:22;;;;;;;;;;;26.80;99.90;;;;;;4144545;28;19936;-57
2022/08/02 10:32:33;;;;;;;;;;;26.70;99.90;;;;;;4129893;28;19929;-56
2022/08/02 10:34:40;;;;;;;;;;;26.80;99.90;;;;;;4139392;28;19925;-57
2022/08/02 10:36:43;;;;;;;;;;;26.80;99.90;;;;;;4142470;28;19944;-57
2022/08/02 10:38:46;;;;;;;;;;;26.70;99.90;;;;;;4146543;28;19925;-57
2022/08/02 10:40:51;;;;;;;;;;;26.60;99.90;;;;;;4146343;28;19921;-57
2022/08/02 10:42:54;;;;;;;;;;;26.80;99.90;;;;;;4145879;28;20028;-56
2022/08/02 10:45:09;;;;;;;;;;;26.80;99.90;;;;;;4146128;28;19925;-58
2022/08/02 10:47:16;;;;;;;;;;;26.80;99.90;;;;;;4143595;28;19933;-56
2022/08/02 10:49:19;;;;;;;;;;;26.90;99.90;;;;;;4144432;28;19972;-57
2022/08/02 10:51:53;;;;;;;;;;;26.90;99.90;;;;;;4130237;28;19925;-57
2022/08/02 10:54:16;;;;;;;;;;;27.00;99.90;;;;;;4141746;28;19932;-56
2022/08/02 10:56:38;;;;;;;;;;;27.10;99.90;;;;;;4145056;28;19932;-58
2022/08/02 10:58:45;;;;;;;;;;;27.40;99.90;;;;;;4145716;28;19921;-56
2022/08/02 11:00:48;;;;;;;;;;;27.60;99.90;;;;;;4139706;28;19972;-58
2022/08/02 11:05:14;;;;;;;;;;;27.90;99.20;;;;;;4127414;28;19932;-57
2022/08/02 11:07:29;;;;;;;;;;;28.00;98.40;;;;;;4114058;28;19979;-56
2022/08/02 11:09:31;;;;;;;;;;;28.40;99.00;;;;;;4127031;28;19961;-57
2022/08/02 11:11:54;;;;;;;;;;;28.60;98.40;;;;;;4130073;28;19972;-57
2022/08/02 11:14:00;;;;;;;;;;;28.90;99.70;;;;;;4127320;28;19926;-58
2022/08/02 11:16:03;;;;;;;;;;;29.20;98.10;;;;;;4127043;28;19960;-57
2022/08/02 11:18:21;;;;;;;;;;;29.40;97.00;;;;;;4126889;28;19925;-57
2022/08/02 11:20:24;;;;;;;;;;;29.70;97.20;;;;;;4126707;28;19973;-56
2022/08/02 11:22:26;;;;;;;;;;;30.00;96.90;;;;;;4126817;28;20234;-56
2022/08/02 11:24:30;;;;;;;;;;;30.20;96.10;;;;;;4109746;28;20016;-57
2022/08/02 11:26:32;;;;;;;;;;;30.40;96.00;;;;;;4127520;28;19927;-56
2022/08/02 11:28:34;;;;;;;;;;;30.30;95.00;;;;;;4126514;28;20308;-58
2022/08/02 11:30:36;;;;;;;;;;;30.40;95.10;;;;;;4118195;28;19921;-58
2022/08/02 11:32:38;;;;;;;;;;;30.30;95.30;;;;;;4111053;28;20325;-57
2022/08/02 11:34:41;;;;;;;;;;;30.30;95.40;;;;;;4126411;28;19926;-57
2022/08/02 11:36:47;;;;;;;;;;;30.30;94.90;;;;;;4122377;28;20088;-57
2022/08/02 11:38:49;;;;;;;;;;;30.30;95.30;;;;;;4126664;28;19926;-57
2022/08/02 11:40:51;;;;;;;;;;;30.60;94.40;;;;;;4120063;28;20366;-57
2022/08/02 11:42:58;;;;;;;;;;;31.00;94.20;;;;;;4136914;28;19931;-56
2022/08/02 11:45:00;;;;;;;;;;;31.30;93.80;;;;;;4133262;28;19933;-56
2022/08/02 11:47:02;;;;;;;;;;;31.40;92.70;;;;;;4131638;28;19930;-57
2022/08/02 11:49:17;;;;;;;;;;;31.40;92.70;;;;;;4144292;28;19929;-58
2022/08/02 11:51:19;;;;;;;;;;;31.50;93.60;;;;;;4129419;28;19926;-57
2022/08/02 11:53:20;;;;;;;;;;;31.40;92.40;;;;;;4130727;28;20012;-57
2022/08/02 11:55:26;;;;;;;;;;;31.60;92.90;;;;;;4144246;28;20452;-57
2022/08/02 11:57:28;;;;;;;;;;;31.60;91.40;;;;;;4135674;28;19984;-57
2022/08/02 11:59:30;;;;;;;;;;;31.50;91.70;;;;;;4129315;28;19929;-57
2022/08/02 12:01:33;;;;;;;;;;;31.80;92.60;;;;;;4145215;28;19972;-57
2022/08/02 12:03:38;;;;;;;;;;;31.90;92.20;;;;;;4137871;28;20525;-58
2022/08/02 12:05:40;;;;;;;;;;;31.60;92.10;;;;;;4144026;28;20028;-57
2022/08/02 12:08:05;;;;;;;;;;;31.90;92.30;;;;;;4137117;28;19929;-57
2022/08/02 12:10:08;;;;;;;;;;;32.40;91.30;;;;;;4141668;28;20399;-58